sensor_id;sensor_type;location;lat;lon;timestamp;P1;durP1;ratioP1;P2;durP2;ratioP2
3343;SDS011;1685;53.104;8.228;2022-08-19T00:01:55;13.70;;;10.20;;
3343;SDS011;1685;53.104;8.228;2022-08-19T00:04:23;16.13;;;12.20;;
3343;SDS011;1685;53.104;8.228;2022-08-19T00:06:52;13.00;;;10.80;;
3343;SDS011;1685;53.104;8.228;2022-08-19T00:09:19;14.57;;;11.13;;
3343;SDS011;1685;53.104;8.228;2022-08-19T00:11:47;18.10;;;10.27;;
3343;SDS011;1685;53.104;8.228;2022-08-19T00:14:15;10.10;;;8.80;;
3343;SDS011;1685;53.104;8.228;2022-08-19T00:16:43;22.63;;;9.97;;
3343;SDS011;1685;53.104;8.228;2022-08-19T00:19:14;12.03;;;9.90;;
3343;SDS011;1685;53.104;8.228;2022-08-19T00:21:42;13.70;;;10.73;;
3343;SDS011;1685;53.104;8.228;2022-08-19T00:24:09;11.57;;;9.03;;
3343;SDS011;1685;53.104;8.228;2022-08-19T00:26:37;13.20;;;9.37;;
3343;SDS011;1685;53.104;8.228;2022-08-19T00:29:05;13.63;;;9.43;;
3343;SDS011;1685;53.104;8.228;2022-08-19T00:31:34;13.10;;;10.03;;
3343;SDS011;1685;53.104;8.228;2022-08-19T00:34:01;18.80;;;9.70;;
3343;SDS011;1685;53.104;8.228;2022-08-19T00:36:29;16.83;;;10.40;;
3343;SDS011;1685;53.104;8.228;2022-08-19T00:38:57;12.70;;;10.13;;
3343;SDS011;1685;53.104;8.228;2022-08-19T00:41:24;12.53;;;9.27;;
3343;SDS011;1685;53.104;8.228;2022-08-19T00:44:01;14.93;;;11.40;;
3343;SDS011;1685;53.104;8.228;2022-08-19T00:46:31;13.30;;;9.17;;
3343;SDS011;1685;53.104;8.228;2022-08-19T00:49:00;13.90;;;10.33;;
3343;SDS011;1685;53.104;8.228;2022-08-19T00:51:33;15.43;;;10.90;;
3343;SDS011;1685;53.104;8.228;2022-08-19T00:54:00;13.80;;;10.23;;
3343;SDS011;1685;53.104;8.228;2022-08-19T00:56:28;21.13;;;11.10;;
3343;SDS011;1685;53.104;8.228;2022-08-19T00:58:56;15.83;;;9.10;;
3343;SDS011;1685;53.104;8.228;2022-08-19T01:01:24;14.67;;;10.80;;
3343;SDS011;1685;53.104;8.228;2022-08-19T01:03:52;14.10;;;9.63;;
3343;SDS011;1685;53.104;8.228;2022-08-19T01:06:18;13.10;;;9.23;;
3343;SDS011;1685;53.104;8.228;2022-08-19T01:08:47;13.80;;;9.63;;
3343;SDS011;1685;53.104;8.228;2022-08-19T01:11:13;13.40;;;9.80;;
3343;SDS011;1685;53.104;8.228;2022-08-19T01:13:40;13.93;;;9.70;;
3343;SDS011;1685;53.104;8.228;2022-08-19T01:16:08;13.40;;;10.30;;
3343;SDS011;1685;53.104;8.228;2022-08-19T01:18:38;13.37;;;10.47;;
3343;SDS011;1685;53.104;8.228;2022-08-19T01:21:08;14.37;;;9.87;;
3343;SDS011;1685;53.104;8.228;2022-08-19T01:23:43;13.10;;;10.47;;
3343;SDS011;1685;53.104;8.228;2022-08-19T01:26:11;13.13;;;9.67;;
3343;SDS011;1685;53.104;8.228;2022-08-19T01:28:41;15.30;;;9.30;;
3343;SDS011;1685;53.104;8.228;2022-08-19T01:31:15;17.70;;;10.87;;
3343;SDS011;1685;53.104;8.228;2022-08-19T01:33:44;13.77;;;10.80;;
3343;SDS011;1685;53.104;8.228;2022-08-19T01:36:12;13.83;;;10.47;;
3343;SDS011;1685;53.104;8.228;2022-08-19T01:38:42;12.43;;;9.83;;
3343;SDS011;1685;53.104;8.228;2022-08-19T01:41:10;13.80;;;10.50;;
3343;SDS011;1685;53.104;8.228;2022-08-19T01:43:37;13.73;;;10.50;;
3343;SDS011;1685;53.104;8.228;2022-08-19T01:46:04;15.80;;;11.00;;
3343;SDS011;1685;53.104;8.228;2022-08-19T01:48:34;12.90;;;9.53;;
3343;SDS011;1685;53.104;8.228;2022-08-19T01:51:02;15.13;;;9.80;;
3343;SDS011;1685;53.104;8.228;2022-08-19T01:53:29;12.57;;;9.07;;
3343;SDS011;1685;53.104;8.228;2022-08-19T01:55:57;16.80;;;10.60;;
3343;SDS011;1685;53.104;8.228;2022-08-19T01:58:26;14.80;;;10.20;;
3343;SDS011;1685;53.104;8.228;2022-08-19T02:00:55;15.37;;;9.57;;
3343;SDS011;1685;53.104;8.228;2022-08-19T02:03:23;13.70;;;8.63;;
3343;SDS011;1685;53.104;8.228;2022-08-19T02:05:53;12.30;;;8.80;;
3343;SDS011;1685;53.104;8.228;2022-08-19T02:08:22;12.77;;;8.60;;
3343;SDS011;1685;53.104;8.228;2022-08-19T02:10:49;10.63;;;7.67;;
3343;SDS011;1685;53.104;8.228;2022-08-19T02:13:17;12.80;;;8.10;;
3343;SDS011;1685;53.104;8.228;2022-08-19T02:15:44;14.03;;;8.93;;
3343;SDS011;1685;53.104;8.228;2022-08-19T02:18:11;14.07;;;9.37;;
3343;SDS011;1685;53.104;8.228;2022-08-19T02:20:38;16.83;;;8.63;;
3343;SDS011;1685;53.104;8.228;2022-08-19T02:23:07;10.53;;;7.47;;
3343;SDS011;1685;53.104;8.228;2022-08-19T02:25:34;12.00;;;8.43;;
3343;SDS011;1685;53.104;8.228;2022-08-19T02:28:02;13.23;;;8.53;;
3343;SDS011;1685;53.104;8.228;2022-08-19T02:30:30;12.50;;;8.63;;
3343;SDS011;1685;53.104;8.228;2022-08-19T02:32:58;13.63;;;9.03;;
3343;SDS011;1685;53.104;8.228;2022-08-19T02:35:25;13.13;;;8.43;;
3343;SDS011;1685;53.104;8.228;2022-08-19T02:37:52;11.60;;;8.23;;
3343;SDS011;1685;53.104;8.228;2022-08-19T02:40:51;16.63;;;9.47;;
3343;SDS011;1685;53.104;8.228;2022-08-19T02:43:19;13.17;;;8.23;;
3343;SDS011;1685;53.104;8.228;2022-08-19T02:45:48;12.80;;;9.07;;
3343;SDS011;1685;53.104;8.228;2022-08-19T02:48:16;13.77;;;7.80;;
3343;SDS011;1685;53.104;8.228;2022-08-19T02:50:43;13.40;;;8.33;;
3343;SDS011;1685;53.104;8.228;2022-08-19T02:53:11;11.13;;;7.60;;
3343;SDS011;1685;53.104;8.228;2022-08-19T02:55:42;9.33;;;7.13;;
3343;SDS011;1685;53.104;8.228;2022-08-19T02:58:09;8.00;;;6.83;;
3343;SDS011;1685;53.104;8.228;2022-08-19T03:00:40;9.47;;;6.90;;
3343;SDS011;1685;53.104;8.228;2022-08-19T03:03:09;7.63;;;6.80;;
3343;SDS011;1685;53.104;8.228;2022-08-19T03:05:36;8.37;;;6.87;;
3343;SDS011;1685;53.104;8.228;2022-08-19T03:08:03;8.30;;;6.70;;
3343;SDS011;1685;53.104;8.228;2022-08-19T03:10:30;7.97;;;6.70;;
3343;SDS011;1685;53.104;8.228;2022-08-19T03:12:57;7.13;;;6.43;;
3343;SDS011;1685;53.104;8.228;2022-08-19T03:15:24;15.27;;;6.57;;
3343;SDS011;1685;53.104;8.228;2022-08-19T03:17:51;7.93;;;6.00;;
3343;SDS011;1685;53.104;8.228;2022-08-19T03:20:20;6.57;;;5.57;;
3343;SDS011;1685;53.104;8.228;2022-08-19T03:22:46;9.63;;;6.73;;
3343;SDS011;1685;53.104;8.228;2022-08-19T03:25:13;7.10;;;6.33;;
3343;SDS011;1685;53.104;8.228;2022-08-19T03:27:40;7.20;;;6.47;;
3343;SDS011;1685;53.104;8.228;2022-08-19T03:30:07;13.27;;;7.03;;
3343;SDS011;1685;53.104;8.228;2022-08-19T03:32:35;8.13;;;5.93;;
3343;SDS011;1685;53.104;8.228;2022-08-19T03:35:02;8.70;;;6.70;;
3343;SDS011;1685;53.104;8.228;2022-08-19T03:37:31;8.40;;;7.00;;
3343;SDS011;1685;53.104;8.228;2022-08-19T03:39:58;7.50;;;6.40;;
3343;SDS011;1685;53.104;8.228;2022-08-19T03:42:25;8.20;;;6.77;;
3343;SDS011;1685;53.104;8.228;2022-08-19T03:44:52;9.20;;;7.30;;
3343;SDS011;1685;53.104;8.228;2022-08-19T03:47:18;9.40;;;7.03;;
3343;SDS011;1685;53.104;8.228;2022-08-19T03:49:45;8.40;;;7.00;;
3343;SDS011;1685;53.104;8.228;2022-08-19T03:52:12;9.60;;;6.97;;
3343;SDS011;1685;53.104;8.228;2022-08-19T03:54:40;10.07;;;7.27;;
3343;SDS011;1685;53.104;8.228;2022-08-19T03:57:07;10.97;;;6.90;;
3343;SDS011;1685;53.104;8.228;2022-08-19T03:59:35;9.70;;;7.77;;
3343;SDS011;1685;53.104;8.228;2022-08-19T04:02:07;9.80;;;7.60;;
3343;SDS011;1685;53.104;8.228;2022-08-19T04:04:36;12.90;;;7.20;;
3343;SDS011;1685;53.104;8.228;2022-08-19T04:07:03;10.57;;;7.73;;
3343;SDS011;1685;53.104;8.228;2022-08-19T04:09:30;13.80;;;9.33;;
3343;SDS011;1685;53.104;8.228;2022-08-19T04:12:00;14.30;;;7.90;;
3343;SDS011;1685;53.104;8.228;2022-08-19T04:14:28;22.60;;;10.03;;
3343;SDS011;1685;53.104;8.228;2022-08-19T04:16:56;20.00;;;10.00;;
3343;SDS011;1685;53.104;8.228;2022-08-19T04:19:24;18.67;;;9.20;;
3343;SDS011;1685;53.104;8.228;2022-08-19T04:21:52;16.43;;;9.10;;
3343;SDS011;1685;53.104;8.228;2022-08-19T04:24:20;23.37;;;10.17;;
3343;SDS011;1685;53.104;8.228;2022-08-19T04:26:48;20.10;;;10.90;;
3343;SDS011;1685;53.104;8.228;2022-08-19T04:29:17;28.40;;;11.50;;
3343;SDS011;1685;53.104;8.228;2022-08-19T04:31:47;24.43;;;11.30;;
3343;SDS011;1685;53.104;8.228;2022-08-19T04:34:16;23.57;;;11.00;;
3343;SDS011;1685;53.104;8.228;2022-08-19T04:36:47;21.20;;;9.63;;
3343;SDS011;1685;53.104;8.228;2022-08-19T04:39:16;18.57;;;9.30;;
3343;SDS011;1685;53.104;8.228;2022-08-19T04:41:44;16.43;;;9.23;;
3343;SDS011;1685;53.104;8.228;2022-08-19T04:44:31;19.90;;;9.37;;
3343;SDS011;1685;53.104;8.228;2022-08-19T04:46:59;29.13;;;10.27;;
3343;SDS011;1685;53.104;8.228;2022-08-19T04:49:26;22.20;;;10.33;;
3343;SDS011;1685;53.104;8.228;2022-08-19T04:51:54;31.30;;;12.40;;
3343;SDS011;1685;53.104;8.228;2022-08-19T04:54:22;28.43;;;12.20;;
3343;SDS011;1685;53.104;8.228;2022-08-19T04:56:51;26.80;;;11.77;;
3343;SDS011;1685;53.104;8.228;2022-08-19T04:59:19;22.83;;;10.77;;
3343;SDS011;1685;53.104;8.228;2022-08-19T05:01:48;27.50;;;11.70;;
3343;SDS011;1685;53.104;8.228;2022-08-19T05:04:15;26.17;;;10.77;;
3343;SDS011;1685;53.104;8.228;2022-08-19T05:06:44;26.27;;;12.07;;
3343;SDS011;1685;53.104;8.228;2022-08-19T05:09:12;29.10;;;12.20;;
3343;SDS011;1685;53.104;8.228;2022-08-19T05:11:39;27.47;;;12.87;;
3343;SDS011;1685;53.104;8.228;2022-08-19T05:14:06;26.20;;;10.50;;
3343;SDS011;1685;53.104;8.228;2022-08-19T05:16:33;25.20;;;11.20;;
3343;SDS011;1685;53.104;8.228;2022-08-19T05:19:02;25.30;;;10.57;;
3343;SDS011;1685;53.104;8.228;2022-08-19T05:21:46;26.20;;;10.57;;
3343;SDS011;1685;53.104;8.228;2022-08-19T05:24:30;20.30;;;10.40;;
3343;SDS011;1685;53.104;8.228;2022-08-19T05:26:59;17.33;;;9.73;;
3343;SDS011;1685;53.104;8.228;2022-08-19T05:29:27;23.40;;;11.07;;
3343;SDS011;1685;53.104;8.228;2022-08-19T05:31:56;16.70;;;9.67;;
3343;SDS011;1685;53.104;8.228;2022-08-19T05:34:25;18.57;;;10.33;;
3343;SDS011;1685;53.104;8.228;2022-08-19T05:36:52;17.53;;;10.40;;
3343;SDS011;1685;53.104;8.228;2022-08-19T05:39:22;21.37;;;10.37;;
3343;SDS011;1685;53.104;8.228;2022-08-19T05:41:51;17.27;;;10.27;;
3343;SDS011;1685;53.104;8.228;2022-08-19T05:44:20;17.00;;;10.77;;
3343;SDS011;1685;53.104;8.228;2022-08-19T05:46:47;16.70;;;11.00;;
3343;SDS011;1685;53.104;8.228;2022-08-19T05:49:14;18.10;;;10.83;;
3343;SDS011;1685;53.104;8.228;2022-08-19T05:51:43;19.37;;;10.77;;
3343;SDS011;1685;53.104;8.228;2022-08-19T05:54:10;24.57;;;11.60;;
3343;SDS011;1685;53.104;8.228;2022-08-19T05:56:38;20.50;;;12.40;;
3343;SDS011;1685;53.104;8.228;2022-08-19T05:59:06;20.03;;;11.60;;
3343;SDS011;1685;53.104;8.228;2022-08-19T06:01:36;17.67;;;10.77;;
3343;SDS011;1685;53.104;8.228;2022-08-19T06:04:03;19.07;;;11.10;;
3343;SDS011;1685;53.104;8.228;2022-08-19T06:06:31;16.63;;;9.50;;
3343;SDS011;1685;53.104;8.228;2022-08-19T06:09:00;18.13;;;10.43;;
3343;SDS011;1685;53.104;8.228;2022-08-19T06:11:32;13.23;;;9.20;;
3343;SDS011;1685;53.104;8.228;2022-08-19T06:14:01;19.80;;;9.67;;
3343;SDS011;1685;53.104;8.228;2022-08-19T06:16:29;10.90;;;8.50;;
3343;SDS011;1685;53.104;8.228;2022-08-19T06:18:57;10.50;;;8.67;;
3343;SDS011;1685;53.104;8.228;2022-08-19T06:21:26;9.97;;;8.00;;
3343;SDS011;1685;53.104;8.228;2022-08-19T06:23:54;8.10;;;7.30;;
3343;SDS011;1685;53.104;8.228;2022-08-19T06:26:25;12.03;;;8.93;;
3343;SDS011;1685;53.104;8.228;2022-08-19T06:28:52;10.97;;;7.90;;
3343;SDS011;1685;53.104;8.228;2022-08-19T06:31:20;10.23;;;7.67;;
3343;SDS011;1685;53.104;8.228;2022-08-19T06:33:48;11.33;;;7.30;;
3343;SDS011;1685;53.104;8.228;2022-08-19T06:36:16;9.57;;;6.60;;
3343;SDS011;1685;53.104;8.228;2022-08-19T06:38:44;8.43;;;6.77;;
3343;SDS011;1685;53.104;8.228;2022-08-19T06:41:10;6.97;;;6.00;;
3343;SDS011;1685;53.104;8.228;2022-08-19T06:43:39;8.30;;;6.00;;
3343;SDS011;1685;53.104;8.228;2022-08-19T06:46:09;6.90;;;6.20;;
3343;SDS011;1685;53.104;8.228;2022-08-19T06:48:37;7.37;;;5.70;;
3343;SDS011;1685;53.104;8.228;2022-08-19T06:51:05;10.13;;;6.43;;
3343;SDS011;1685;53.104;8.228;2022-08-19T06:53:31;10.60;;;5.83;;
3343;SDS011;1685;53.104;8.228;2022-08-19T06:55:59;6.67;;;5.00;;
3343;SDS011;1685;53.104;8.228;2022-08-19T06:58:27;15.67;;;5.03;;
3343;SDS011;1685;53.104;8.228;2022-08-19T07:00:58;6.03;;;4.50;;
3343;SDS011;1685;53.104;8.228;2022-08-19T07:03:27;6.43;;;4.70;;
3343;SDS011;1685;53.104;8.228;2022-08-19T07:05:55;6.53;;;4.50;;
3343;SDS011;1685;53.104;8.228;2022-08-19T07:08:24;7.20;;;4.10;;
3343;SDS011;1685;53.104;8.228;2022-08-19T07:10:52;4.80;;;3.63;;
3343;SDS011;1685;53.104;8.228;2022-08-19T07:13:19;3.90;;;3.53;;
3343;SDS011;1685;53.104;8.228;2022-08-19T07:15:47;3.33;;;3.00;;
3343;SDS011;1685;53.104;8.228;2022-08-19T07:18:16;3.13;;;2.83;;
3343;SDS011;1685;53.104;8.228;2022-08-19T07:20:43;2.73;;;2.53;;
3343;SDS011;1685;53.104;8.228;2022-08-19T07:23:10;3.07;;;2.87;;
3343;SDS011;1685;53.104;8.228;2022-08-19T07:25:38;2.50;;;2.40;;
3343;SDS011;1685;53.104;8.228;2022-08-19T07:28:05;3.00;;;2.77;;
3343;SDS011;1685;53.104;8.228;2022-08-19T07:30:35;2.40;;;2.30;;
3343;SDS011;1685;53.104;8.228;2022-08-19T07:33:03;2.97;;;2.30;;
3343;SDS011;1685;53.104;8.228;2022-08-19T07:35:31;2.80;;;2.40;;
3343;SDS011;1685;53.104;8.228;2022-08-19T07:37:58;5.53;;;2.50;;
3343;SDS011;1685;53.104;8.228;2022-08-19T07:40:27;3.00;;;2.80;;
3343;SDS011;1685;53.104;8.228;2022-08-19T07:42:54;5.07;;;2.00;;
3343;SDS011;1685;53.104;8.228;2022-08-19T07:45:22;3.70;;;2.70;;
3343;SDS011;1685;53.104;8.228;2022-08-19T07:47:49;2.80;;;2.20;;
3343;SDS011;1685;53.104;8.228;2022-08-19T07:50:18;3.10;;;2.23;;
3343;SDS011;1685;53.104;8.228;2022-08-19T07:52:47;2.90;;;2.43;;
3343;SDS011;1685;53.104;8.228;2022-08-19T07:55:16;4.50;;;2.40;;
3343;SDS011;1685;53.104;8.228;2022-08-19T07:57:44;2.10;;;2.00;;
3343;SDS011;1685;53.104;8.228;2022-08-19T08:00:12;2.50;;;2.30;;
3343;SDS011;1685;53.104;8.228;2022-08-19T08:02:39;2.43;;;2.10;;
3343;SDS011;1685;53.104;8.228;2022-08-19T08:05:07;2.87;;;2.57;;
3343;SDS011;1685;53.104;8.228;2022-08-19T08:07:53;2.50;;;2.30;;
3343;SDS011;1685;53.104;8.228;2022-08-19T08:10:37;2.97;;;2.57;;
3343;SDS011;1685;53.104;8.228;2022-08-19T08:13:04;4.73;;;2.50;;
3343;SDS011;1685;53.104;8.228;2022-08-19T08:15:32;2.50;;;2.30;;
3343;SDS011;1685;53.104;8.228;2022-08-19T08:17:59;3.07;;;2.00;;
3343;SDS011;1685;53.104;8.228;2022-08-19T08:20:26;5.03;;;2.73;;
3343;SDS011;1685;53.104;8.228;2022-08-19T08:22:54;6.37;;;2.67;;
3343;SDS011;1685;53.104;8.228;2022-08-19T08:25:38;2.50;;;2.30;;
3343;SDS011;1685;53.104;8.228;2022-08-19T08:28:05;7.37;;;3.10;;
3343;SDS011;1685;53.104;8.228;2022-08-19T08:30:34;5.77;;;2.63;;
3343;SDS011;1685;53.104;8.228;2022-08-19T08:33:02;4.60;;;2.73;;
3343;SDS011;1685;53.104;8.228;2022-08-19T08:35:29;2.90;;;2.70;;
3343;SDS011;1685;53.104;8.228;2022-08-19T08:37:57;3.20;;;2.63;;
3343;SDS011;1685;53.104;8.228;2022-08-19T08:40:26;3.40;;;2.60;;
3343;SDS011;1685;53.104;8.228;2022-08-19T08:42:56;2.60;;;2.40;;
3343;SDS011;1685;53.104;8.228;2022-08-19T08:45:29;4.90;;;2.17;;
3343;SDS011;1685;53.104;8.228;2022-08-19T08:47:57;4.80;;;2.30;;
3343;SDS011;1685;53.104;8.228;2022-08-19T08:50:28;2.80;;;2.10;;
3343;SDS011;1685;53.104;8.228;2022-08-19T08:53:02;3.13;;;2.50;;
3343;SDS011;1685;53.104;8.228;2022-08-19T08:55:32;2.07;;;1.87;;
3343;SDS011;1685;53.104;8.228;2022-08-19T08:58:00;2.90;;;1.90;;
3343;SDS011;1685;53.104;8.228;2022-08-19T09:00:32;2.20;;;2.07;;
3343;SDS011;1685;53.104;8.228;2022-08-19T09:03:01;2.90;;;2.07;;
3343;SDS011;1685;53.104;8.228;2022-08-19T09:05:33;4.33;;;2.10;;
3343;SDS011;1685;53.104;8.228;2022-08-19T09:08:11;3.97;;;2.17;;
3343;SDS011;1685;53.104;8.228;2022-08-19T09:10:44;3.53;;;2.10;;
3343;SDS011;1685;53.104;8.228;2022-08-19T09:13:17;2.10;;;1.90;;
3343;SDS011;1685;53.104;8.228;2022-08-19T09:15:52;5.10;;;2.20;;
3343;SDS011;1685;53.104;8.228;2022-08-19T09:18:23;1.97;;;1.87;;
3343;SDS011;1685;53.104;8.228;2022-08-19T09:20:50;2.50;;;1.80;;
3343;SDS011;1685;53.104;8.228;2022-08-19T09:23:19;1.80;;;1.73;;
3343;SDS011;1685;53.104;8.228;2022-08-19T09:25:49;3.43;;;2.13;;
3343;SDS011;1685;53.104;8.228;2022-08-19T09:28:16;4.80;;;3.07;;
3343;SDS011;1685;53.104;8.228;2022-08-19T09:30:43;2.40;;;1.70;;
3343;SDS011;1685;53.104;8.228;2022-08-19T09:33:10;4.17;;;2.10;;
3343;SDS011;1685;53.104;8.228;2022-08-19T09:35:37;2.00;;;1.90;;
3343;SDS011;1685;53.104;8.228;2022-08-19T09:38:04;3.07;;;2.03;;
3343;SDS011;1685;53.104;8.228;2022-08-19T09:40:32;5.80;;;1.93;;
3343;SDS011;1685;53.104;8.228;2022-08-19T09:43:00;4.70;;;2.10;;
3343;SDS011;1685;53.104;8.228;2022-08-19T09:45:27;2.07;;;1.97;;
3343;SDS011;1685;53.104;8.228;2022-08-19T09:47:54;3.90;;;2.40;;
3343;SDS011;1685;53.104;8.228;2022-08-19T09:50:22;2.50;;;2.30;;
3343;SDS011;1685;53.104;8.228;2022-08-19T09:52:49;1.90;;;1.80;;
3343;SDS011;1685;53.104;8.228;2022-08-19T09:55:18;2.20;;;1.93;;
3343;SDS011;1685;53.104;8.228;2022-08-19T09:57:46;3.97;;;1.97;;
3343;SDS011;1685;53.104;8.228;2022-08-19T10:00:13;2.03;;;1.63;;
3343;SDS011;1685;53.104;8.228;2022-08-19T10:02:40;5.30;;;3.30;;
3343;SDS011;1685;53.104;8.228;2022-08-19T10:05:08;2.60;;;1.97;;
3343;SDS011;1685;53.104;8.228;2022-08-19T10:07:52;1.90;;;1.80;;
3343;SDS011;1685;53.104;8.228;2022-08-19T10:10:19;2.03;;;1.90;;
3343;SDS011;1685;53.104;8.228;2022-08-19T10:12:48;4.00;;;2.13;;
3343;SDS011;1685;53.104;8.228;2022-08-19T10:15:15;2.20;;;2.00;;
3343;SDS011;1685;53.104;8.228;2022-08-19T10:17:45;2.00;;;1.70;;
3343;SDS011;1685;53.104;8.228;2022-08-19T10:20:13;2.43;;;2.20;;
3343;SDS011;1685;53.104;8.228;2022-08-19T10:22:40;2.00;;;1.80;;
3343;SDS011;1685;53.104;8.228;2022-08-19T10:25:08;2.53;;;2.20;;
3343;SDS011;1685;53.104;8.228;2022-08-19T10:27:36;2.20;;;1.80;;
3343;SDS011;1685;53.104;8.228;2022-08-19T10:30:05;2.60;;;2.40;;
3343;SDS011;1685;53.104;8.228;2022-08-19T10:32:33;6.00;;;2.07;;
3343;SDS011;1685;53.104;8.228;2022-08-19T10:35:00;6.80;;;1.70;;
3343;SDS011;1685;53.104;8.228;2022-08-19T10:37:28;2.23;;;2.03;;
3343;SDS011;1685;53.104;8.228;2022-08-19T10:39:57;2.37;;;1.50;;
3343;SDS011;1685;53.104;8.228;2022-08-19T10:42:24;2.07;;;1.87;;
3343;SDS011;1685;53.104;8.228;2022-08-19T10:44:51;2.40;;;2.30;;
3343;SDS011;1685;53.104;8.228;2022-08-19T10:47:19;3.13;;;1.83;;
3343;SDS011;1685;53.104;8.228;2022-08-19T10:49:48;1.60;;;1.50;;
3343;SDS011;1685;53.104;8.228;2022-08-19T10:52:47;3.83;;;1.77;;
3343;SDS011;1685;53.104;8.228;2022-08-19T10:55:15;2.53;;;1.80;;
3343;SDS011;1685;53.104;8.228;2022-08-19T10:58:01;2.07;;;1.73;;
3343;SDS011;1685;53.104;8.228;2022-08-19T11:00:28;1.87;;;1.70;;
3343;SDS011;1685;53.104;8.228;2022-08-19T11:02:57;2.23;;;2.00;;
3343;SDS011;1685;53.104;8.228;2022-08-19T11:05:24;1.77;;;1.60;;
3343;SDS011;1685;53.104;8.228;2022-08-19T11:07:51;7.77;;;1.70;;
3343;SDS011;1685;53.104;8.228;2022-08-19T11:10:18;5.60;;;1.83;;
3343;SDS011;1685;53.104;8.228;2022-08-19T11:12:45;1.73;;;1.63;;
3343;SDS011;1685;53.104;8.228;2022-08-19T11:15:13;1.73;;;1.60;;
3343;SDS011;1685;53.104;8.228;2022-08-19T11:17:40;2.00;;;1.80;;
3343;SDS011;1685;53.104;8.228;2022-08-19T11:20:10;3.63;;;1.70;;
3343;SDS011;1685;53.104;8.228;2022-08-19T11:22:37;1.53;;;1.43;;
3343;SDS011;1685;53.104;8.228;2022-08-19T11:25:05;2.57;;;1.60;;
3343;SDS011;1685;53.104;8.228;2022-08-19T11:27:32;2.20;;;1.60;;
3343;SDS011;1685;53.104;8.228;2022-08-19T11:29:59;1.53;;;1.43;;
3343;SDS011;1685;53.104;8.228;2022-08-19T11:32:28;4.13;;;2.03;;
3343;SDS011;1685;53.104;8.228;2022-08-19T11:34:55;1.77;;;1.67;;
3343;SDS011;1685;53.104;8.228;2022-08-19T11:37:23;1.80;;;1.70;;
3343;SDS011;1685;53.104;8.228;2022-08-19T11:39:51;2.93;;;2.10;;
3343;SDS011;1685;53.104;8.228;2022-08-19T11:42:18;1.80;;;1.70;;
3343;SDS011;1685;53.104;8.228;2022-08-19T11:45:03;5.70;;;2.00;;
3343;SDS011;1685;53.104;8.228;2022-08-19T11:47:30;2.27;;;2.00;;
3343;SDS011;1685;53.104;8.228;2022-08-19T11:49:58;2.00;;;1.80;;
3343;SDS011;1685;53.104;8.228;2022-08-19T11:52:26;1.60;;;1.47;;
3343;SDS011;1685;53.104;8.228;2022-08-19T11:54:54;4.10;;;2.00;;
3343;SDS011;1685;53.104;8.228;2022-08-19T11:57:21;1.70;;;1.50;;
3343;SDS011;1685;53.104;8.228;2022-08-19T11:59:49;3.37;;;2.10;;
3343;SDS011;1685;53.104;8.228;2022-08-19T12:02:17;1.43;;;1.33;;
3343;SDS011;1685;53.104;8.228;2022-08-19T12:04:44;2.87;;;1.90;;
3343;SDS011;1685;53.104;8.228;2022-08-19T12:07:12;2.70;;;1.87;;
3343;SDS011;1685;53.104;8.228;2022-08-19T12:09:40;1.53;;;1.43;;
3343;SDS011;1685;53.104;8.228;2022-08-19T12:12:08;2.07;;;1.97;;
3343;SDS011;1685;53.104;8.228;2022-08-19T12:14:35;1.50;;;1.40;;
3343;SDS011;1685;53.104;8.228;2022-08-19T12:17:02;3.80;;;1.77;;
3343;SDS011;1685;53.104;8.228;2022-08-19T12:19:32;2.30;;;1.93;;
3343;SDS011;1685;53.104;8.228;2022-08-19T12:22:00;2.77;;;1.80;;
3343;SDS011;1685;53.104;8.228;2022-08-19T12:24:29;1.67;;;1.57;;
3343;SDS011;1685;53.104;8.228;2022-08-19T12:26:58;2.47;;;1.90;;
3343;SDS011;1685;53.104;8.228;2022-08-19T12:29:26;2.50;;;2.07;;
3343;SDS011;1685;53.104;8.228;2022-08-19T12:31:54;1.67;;;1.57;;
3343;SDS011;1685;53.104;8.228;2022-08-19T12:34:25;2.40;;;1.73;;
3343;SDS011;1685;53.104;8.228;2022-08-19T12:36:54;2.00;;;1.80;;
3343;SDS011;1685;53.104;8.228;2022-08-19T12:39:22;1.80;;;1.70;;
3343;SDS011;1685;53.104;8.228;2022-08-19T12:41:49;1.63;;;1.53;;
3343;SDS011;1685;53.104;8.228;2022-08-19T12:44:17;1.90;;;1.63;;
3343;SDS011;1685;53.104;8.228;2022-08-19T12:46:44;1.90;;;1.80;;
3343;SDS011;1685;53.104;8.228;2022-08-19T12:49:11;2.10;;;1.90;;
3343;SDS011;1685;53.104;8.228;2022-08-19T12:51:38;2.47;;;1.70;;
3343;SDS011;1685;53.104;8.228;2022-08-19T12:54:05;5.13;;;1.80;;
3343;SDS011;1685;53.104;8.228;2022-08-19T12:56:32;2.07;;;1.87;;
3343;SDS011;1685;53.104;8.228;2022-08-19T12:59:00;2.10;;;1.97;;
3343;SDS011;1685;53.104;8.228;2022-08-19T13:01:29;2.73;;;1.67;;
3343;SDS011;1685;53.104;8.228;2022-08-19T13:06:33;4.23;;;1.80;;
3343;SDS011;1685;53.104;8.228;2022-08-19T13:09:01;2.00;;;1.90;;
3343;SDS011;1685;53.104;8.228;2022-08-19T13:14:03;2.17;;;1.97;;
3343;SDS011;1685;53.104;8.228;2022-08-19T13:19:07;2.10;;;1.90;;
3343;SDS011;1685;53.104;8.228;2022-08-19T13:21:35;2.70;;;1.93;;
3343;SDS011;1685;53.104;8.228;2022-08-19T13:24:03;2.07;;;1.97;;
3343;SDS011;1685;53.104;8.228;2022-08-19T13:26:29;2.10;;;2.00;;
3343;SDS011;1685;53.104;8.228;2022-08-19T13:28:57;3.83;;;1.80;;
3343;SDS011;1685;53.104;8.228;2022-08-19T13:31:41;1.80;;;1.70;;
3343;SDS011;1685;53.104;8.228;2022-08-19T13:34:28;2.03;;;1.93;;
3343;SDS011;1685;53.104;8.228;2022-08-19T13:36:57;2.30;;;2.10;;
3343;SDS011;1685;53.104;8.228;2022-08-19T13:39:25;3.20;;;2.07;;
3343;SDS011;1685;53.104;8.228;2022-08-19T13:41:52;1.90;;;1.80;;
3343;SDS011;1685;53.104;8.228;2022-08-19T13:44:19;1.77;;;1.43;;
3343;SDS011;1685;53.104;8.228;2022-08-19T13:46:47;2.37;;;2.20;;
3343;SDS011;1685;53.104;8.228;2022-08-19T13:49:15;2.10;;;1.90;;
3343;SDS011;1685;53.104;8.228;2022-08-19T13:51:44;1.87;;;1.77;;
3343;SDS011;1685;53.104;8.228;2022-08-19T13:54:11;3.77;;;1.60;;
3343;SDS011;1685;53.104;8.228;2022-08-19T13:56:40;2.40;;;2.30;;
3343;SDS011;1685;53.104;8.228;2022-08-19T13:59:07;2.50;;;1.90;;
3343;SDS011;1685;53.104;8.228;2022-08-19T14:01:34;3.53;;;2.03;;
3343;SDS011;1685;53.104;8.228;2022-08-19T14:04:02;1.93;;;1.83;;
3343;SDS011;1685;53.104;8.228;2022-08-19T14:06:29;2.30;;;2.20;;
3343;SDS011;1685;53.104;8.228;2022-08-19T14:08:57;2.50;;;1.90;;
3343;SDS011;1685;53.104;8.228;2022-08-19T14:11:24;2.23;;;2.10;;
3343;SDS011;1685;53.104;8.228;2022-08-19T14:13:52;2.47;;;2.27;;
3343;SDS011;1685;53.104;8.228;2022-08-19T14:16:19;2.57;;;2.37;;
3343;SDS011;1685;53.104;8.228;2022-08-19T14:18:46;2.70;;;1.97;;
3343;SDS011;1685;53.104;8.228;2022-08-19T14:21:14;2.83;;;2.20;;
3343;SDS011;1685;53.104;8.228;2022-08-19T14:23:43;3.43;;;2.10;;
3343;SDS011;1685;53.104;8.228;2022-08-19T14:26:12;1.87;;;1.77;;
3343;SDS011;1685;53.104;8.228;2022-08-19T14:28:40;1.63;;;1.53;;
3343;SDS011;1685;53.104;8.228;2022-08-19T14:31:08;1.77;;;1.67;;
3343;SDS011;1685;53.104;8.228;2022-08-19T14:33:35;2.43;;;2.10;;
3343;SDS011;1685;53.104;8.228;2022-08-19T14:36:03;3.57;;;2.50;;
3343;SDS011;1685;53.104;8.228;2022-08-19T14:38:30;3.37;;;2.53;;
3343;SDS011;1685;53.104;8.228;2022-08-19T14:41:07;3.00;;;2.20;;
3343;SDS011;1685;53.104;8.228;2022-08-19T14:43:37;2.40;;;2.30;;
3343;SDS011;1685;53.104;8.228;2022-08-19T14:46:04;2.43;;;2.23;;
3343;SDS011;1685;53.104;8.228;2022-08-19T14:48:32;2.83;;;2.37;;
3343;SDS011;1685;53.104;8.228;2022-08-19T14:51:01;2.93;;;2.80;;
3343;SDS011;1685;53.104;8.228;2022-08-19T14:53:28;3.00;;;2.53;;
3343;SDS011;1685;53.104;8.228;2022-08-19T14:55:55;2.80;;;2.60;;
3343;SDS011;1685;53.104;8.228;2022-08-19T14:58:22;3.07;;;2.13;;
3343;SDS011;1685;53.104;8.228;2022-08-19T15:00:50;3.47;;;2.60;;
3343;SDS011;1685;53.104;8.228;2022-08-19T15:03:17;2.30;;;2.20;;
3343;SDS011;1685;53.104;8.228;2022-08-19T15:05:44;2.83;;;2.60;;
3343;SDS011;1685;53.104;8.228;2022-08-19T15:08:11;2.53;;;2.40;;
3343;SDS011;1685;53.104;8.228;2022-08-19T15:10:38;2.60;;;2.50;;
3343;SDS011;1685;53.104;8.228;2022-08-19T15:13:05;2.60;;;2.40;;
3343;SDS011;1685;53.104;8.228;2022-08-19T15:15:33;2.97;;;2.87;;
3343;SDS011;1685;53.104;8.228;2022-08-19T15:18:01;2.70;;;2.50;;
3343;SDS011;1685;53.104;8.228;2022-08-19T15:20:28;3.23;;;3.03;;
3343;SDS011;1685;53.104;8.228;2022-08-19T15:22:56;2.63;;;2.53;;
3343;SDS011;1685;53.104;8.228;2022-08-19T15:25:24;2.67;;;2.47;;